sensor_id;sensor_type;location;lat;lon;timestamp;P1;durP1;ratioP1;P2;durP2;ratioP2
22963;SDS011;11648;49.306;6.934;2022-07-26T00:00:08;3.37;;;1.30;;
22963;SDS011;11648;49.306;6.934;2022-07-26T00:02:37;3.63;;;1.30;;
22963;SDS011;11648;49.306;6.934;2022-07-26T00:05:12;3.40;;;1.73;;
22963;SDS011;11648;49.306;6.934;2022-07-26T00:07:39;4.33;;;1.50;;
22963;SDS011;11648;49.306;6.934;2022-07-26T00:10:06;5.37;;;1.40;;
22963;SDS011;11648;49.306;6.934;2022-07-26T00:12:33;2.50;;;1.07;;
22963;SDS011;11648;49.306;6.934;2022-07-26T00:15:00;3.50;;;1.30;;
22963;SDS011;11648;49.306;6.934;2022-07-26T00:17:27;5.53;;;1.40;;
22963;SDS011;11648;49.306;6.934;2022-07-26T00:19:54;6.23;;;1.53;;
22963;SDS011;11648;49.306;6.934;2022-07-26T00:22:20;7.87;;;1.80;;
22963;SDS011;11648;49.306;6.934;2022-07-26T00:25:05;4.90;;;1.60;;
22963;SDS011;11648;49.306;6.934;2022-07-26T00:27:33;5.73;;;1.70;;
22963;SDS011;11648;49.306;6.934;2022-07-26T00:30:04;3.87;;;1.60;;
22963;SDS011;11648;49.306;6.934;2022-07-26T00:32:32;6.80;;;1.50;;
22963;SDS011;11648;49.306;6.934;2022-07-26T00:35:00;4.67;;;1.90;;
22963;SDS011;11648;49.306;6.934;2022-07-26T00:37:26;3.20;;;1.60;;
22963;SDS011;11648;49.306;6.934;2022-07-26T00:39:53;5.37;;;1.80;;
22963;SDS011;11648;49.306;6.934;2022-07-26T00:42:20;4.57;;;1.50;;
22963;SDS011;11648;49.306;6.934;2022-07-26T00:44:47;3.90;;;1.60;;
22963;SDS011;11648;49.306;6.934;2022-07-26T00:47:14;5.30;;;1.43;;
22963;SDS011;11648;49.306;6.934;2022-07-26T00:49:41;5.10;;;1.40;;
22963;SDS011;11648;49.306;6.934;2022-07-26T00:52:08;6.33;;;1.40;;
22963;SDS011;11648;49.306;6.934;2022-07-26T00:54:36;6.53;;;1.40;;
22963;SDS011;11648;49.306;6.934;2022-07-26T00:57:04;3.53;;;1.50;;
22963;SDS011;11648;49.306;6.934;2022-07-26T00:59:31;4.57;;;1.80;;
22963;SDS011;11648;49.306;6.934;2022-07-26T01:01:58;5.20;;;1.50;;
22963;SDS011;11648;49.306;6.934;2022-07-26T01:04:25;3.73;;;1.30;;
22963;SDS011;11648;49.306;6.934;2022-07-26T01:06:52;5.53;;;1.40;;
22963;SDS011;11648;49.306;6.934;2022-07-26T01:09:19;6.43;;;1.40;;
22963;SDS011;11648;49.306;6.934;2022-07-26T01:11:46;3.53;;;1.40;;
22963;SDS011;11648;49.306;6.934;2022-07-26T01:14:14;2.93;;;1.40;;
22963;SDS011;11648;49.306;6.934;2022-07-26T01:16:41;4.13;;;1.57;;
22963;SDS011;11648;49.306;6.934;2022-07-26T01:19:09;6.43;;;1.63;;
22963;SDS011;11648;49.306;6.934;2022-07-26T01:21:36;3.70;;;1.50;;
22963;SDS011;11648;49.306;6.934;2022-07-26T01:24:02;5.33;;;1.57;;
22963;SDS011;11648;49.306;6.934;2022-07-26T01:26:29;4.70;;;1.87;;
22963;SDS011;11648;49.306;6.934;2022-07-26T01:28:56;5.80;;;1.90;;
22963;SDS011;11648;49.306;6.934;2022-07-26T01:31:23;4.37;;;1.83;;
22963;SDS011;11648;49.306;6.934;2022-07-26T01:33:49;6.77;;;2.20;;
22963;SDS011;11648;49.306;6.934;2022-07-26T01:36:16;4.50;;;2.00;;
22963;SDS011;11648;49.306;6.934;2022-07-26T01:38:44;5.77;;;1.67;;
22963;SDS011;11648;49.306;6.934;2022-07-26T01:41:10;7.57;;;1.87;;
22963;SDS011;11648;49.306;6.934;2022-07-26T01:43:37;5.70;;;1.60;;
22963;SDS011;11648;49.306;6.934;2022-07-26T01:46:07;6.17;;;1.73;;
22963;SDS011;11648;49.306;6.934;2022-07-26T01:48:35;4.40;;;1.67;;
22963;SDS011;11648;49.306;6.934;2022-07-26T01:51:02;4.10;;;1.50;;
22963;SDS011;11648;49.306;6.934;2022-07-26T01:53:29;3.57;;;1.50;;
22963;SDS011;11648;49.306;6.934;2022-07-26T01:55:55;3.70;;;1.60;;
22963;SDS011;11648;49.306;6.934;2022-07-26T01:58:22;3.87;;;1.37;;
22963;SDS011;11648;49.306;6.934;2022-07-26T02:00:49;6.70;;;1.50;;
22963;SDS011;11648;49.306;6.934;2022-07-26T02:03:16;5.47;;;1.40;;
22963;SDS011;11648;49.306;6.934;2022-07-26T02:05:43;6.27;;;1.60;;
22963;SDS011;11648;49.306;6.934;2022-07-26T02:08:10;2.67;;;1.10;;
22963;SDS011;11648;49.306;6.934;2022-07-26T02:10:38;3.33;;;1.20;;
22963;SDS011;11648;49.306;6.934;2022-07-26T02:13:23;4.17;;;1.03;;
22963;SDS011;11648;49.306;6.934;2022-07-26T02:15:50;4.20;;;1.20;;
22963;SDS011;11648;49.306;6.934;2022-07-26T02:18:17;5.30;;;1.20;;
22963;SDS011;11648;49.306;6.934;2022-07-26T02:20:43;3.73;;;1.30;;
22963;SDS011;11648;49.306;6.934;2022-07-26T02:23:10;7.70;;;1.50;;
22963;SDS011;11648;49.306;6.934;2022-07-26T02:25:37;4.50;;;1.03;;
22963;SDS011;11648;49.306;6.934;2022-07-26T02:28:04;3.67;;;1.10;;
22963;SDS011;11648;49.306;6.934;2022-07-26T02:30:31;6.20;;;1.00;;
22963;SDS011;11648;49.306;6.934;2022-07-26T02:32:58;2.70;;;1.30;;
22963;SDS011;11648;49.306;6.934;2022-07-26T02:35:25;4.77;;;1.03;;
22963;SDS011;11648;49.306;6.934;2022-07-26T02:37:52;3.17;;;1.17;;
22963;SDS011;11648;49.306;6.934;2022-07-26T02:40:19;5.85;;;1.40;;
22963;SDS011;11648;49.306;6.934;2022-07-26T02:42:45;3.60;;;1.00;;
22963;SDS011;11648;49.306;6.934;2022-07-26T02:45:12;2.60;;;0.97;;
22963;SDS011;11648;49.306;6.934;2022-07-26T02:47:45;4.20;;;1.20;;
22963;SDS011;11648;49.306;6.934;2022-07-26T02:50:16;3.83;;;1.10;;
22963;SDS011;11648;49.306;6.934;2022-07-26T02:52:43;3.70;;;0.90;;
22963;SDS011;11648;49.306;6.934;2022-07-26T02:55:13;3.90;;;0.93;;
22963;SDS011;11648;49.306;6.934;2022-07-26T02:57:41;3.57;;;0.80;;
22963;SDS011;11648;49.306;6.934;2022-07-26T03:00:12;3.47;;;1.10;;
22963;SDS011;11648;49.306;6.934;2022-07-26T03:02:42;4.00;;;0.90;;
22963;SDS011;11648;49.306;6.934;2022-07-26T03:05:08;7.80;;;1.10;;
22963;SDS011;11648;49.306;6.934;2022-07-26T03:07:35;3.77;;;0.80;;
22963;SDS011;11648;49.306;6.934;2022-07-26T03:10:02;2.53;;;0.80;;
22963;SDS011;11648;49.306;6.934;2022-07-26T03:12:30;2.50;;;0.97;;
22963;SDS011;11648;49.306;6.934;2022-07-26T03:14:57;3.97;;;1.00;;
22963;SDS011;11648;49.306;6.934;2022-07-26T03:17:24;5.30;;;1.00;;
22963;SDS011;11648;49.306;6.934;2022-07-26T03:19:50;4.80;;;0.87;;
22963;SDS011;11648;49.306;6.934;2022-07-26T03:22:17;3.10;;;0.83;;
22963;SDS011;11648;49.306;6.934;2022-07-26T03:24:44;3.93;;;0.90;;
22963;SDS011;11648;49.306;6.934;2022-07-26T03:27:10;4.37;;;1.00;;
22963;SDS011;11648;49.306;6.934;2022-07-26T03:29:37;2.53;;;0.87;;
22963;SDS011;11648;49.306;6.934;2022-07-26T03:32:04;5.33;;;1.30;;
22963;SDS011;11648;49.306;6.934;2022-07-26T03:34:31;2.83;;;0.80;;
22963;SDS011;11648;49.306;6.934;2022-07-26T03:36:57;3.77;;;0.80;;
22963;SDS011;11648;49.306;6.934;2022-07-26T03:39:24;4.10;;;0.90;;
22963;SDS011;11648;49.306;6.934;2022-07-26T03:41:51;2.57;;;0.80;;
22963;SDS011;11648;49.306;6.934;2022-07-26T03:44:18;3.90;;;0.90;;
22963;SDS011;11648;49.306;6.934;2022-07-26T03:46:44;3.10;;;0.80;;
22963;SDS011;11648;49.306;6.934;2022-07-26T03:49:11;2.90;;;0.83;;
22963;SDS011;11648;49.306;6.934;2022-07-26T03:51:42;3.90;;;0.97;;
22963;SDS011;11648;49.306;6.934;2022-07-26T03:54:09;4.70;;;0.93;;
22963;SDS011;11648;49.306;6.934;2022-07-26T03:56:36;4.93;;;0.90;;
22963;SDS011;11648;49.306;6.934;2022-07-26T03:59:03;3.57;;;0.90;;
22963;SDS011;11648;49.306;6.934;2022-07-26T04:01:32;2.67;;;0.90;;
22963;SDS011;11648;49.306;6.934;2022-07-26T04:04:00;2.53;;;0.90;;
22963;SDS011;11648;49.306;6.934;2022-07-26T04:06:27;2.57;;;0.77;;
22963;SDS011;11648;49.306;6.934;2022-07-26T04:08:54;5.40;;;1.20;;
22963;SDS011;11648;49.306;6.934;2022-07-26T04:11:20;1.70;;;0.63;;
22963;SDS011;11648;49.306;6.934;2022-07-26T04:13:51;3.50;;;1.03;;
22963;SDS011;11648;49.306;6.934;2022-07-26T04:16:18;2.27;;;0.87;;
22963;SDS011;11648;49.306;6.934;2022-07-26T04:18:45;2.73;;;0.90;;
22963;SDS011;11648;49.306;6.934;2022-07-26T04:21:11;3.17;;;1.00;;
22963;SDS011;11648;49.306;6.934;2022-07-26T04:23:38;4.10;;;1.40;;
22963;SDS011;11648;49.306;6.934;2022-07-26T04:26:04;2.67;;;0.77;;
22963;SDS011;11648;49.306;6.934;2022-07-26T04:28:32;3.40;;;0.90;;
22963;SDS011;11648;49.306;6.934;2022-07-26T04:30:59;3.27;;;0.80;;
22963;SDS011;11648;49.306;6.934;2022-07-26T04:33:26;5.43;;;0.97;;
22963;SDS011;11648;49.306;6.934;2022-07-26T04:35:53;5.90;;;0.70;;
22963;SDS011;11648;49.306;6.934;2022-07-26T04:38:20;6.50;;;1.00;;
22963;SDS011;11648;49.306;6.934;2022-07-26T04:40:46;4.17;;;1.10;;
22963;SDS011;11648;49.306;6.934;2022-07-26T04:43:15;2.77;;;0.90;;
22963;SDS011;11648;49.306;6.934;2022-07-26T04:45:45;2.93;;;1.00;;
22963;SDS011;11648;49.306;6.934;2022-07-26T04:48:12;5.47;;;0.87;;
22963;SDS011;11648;49.306;6.934;2022-07-26T04:50:40;4.97;;;1.00;;
22963;SDS011;11648;49.306;6.934;2022-07-26T04:53:06;2.53;;;0.93;;
22963;SDS011;11648;49.306;6.934;2022-07-26T04:55:36;3.83;;;1.00;;
22963;SDS011;11648;49.306;6.934;2022-07-26T04:58:03;2.50;;;0.87;;
22963;SDS011;11648;49.306;6.934;2022-07-26T05:00:30;2.23;;;0.80;;
22963;SDS011;11648;49.306;6.934;2022-07-26T05:02:57;3.50;;;1.03;;
22963;SDS011;11648;49.306;6.934;2022-07-26T05:05:27;3.90;;;1.03;;
22963;SDS011;11648;49.306;6.934;2022-07-26T05:07:56;4.70;;;1.10;;
22963;SDS011;11648;49.306;6.934;2022-07-26T05:10:28;3.77;;;0.93;;
22963;SDS011;11648;49.306;6.934;2022-07-26T05:12:57;2.30;;;0.83;;
22963;SDS011;11648;49.306;6.934;2022-07-26T05:15:23;3.77;;;1.00;;
22963;SDS011;11648;49.306;6.934;2022-07-26T05:18:01;4.50;;;0.90;;
22963;SDS011;11648;49.306;6.934;2022-07-26T05:20:32;4.43;;;0.93;;
22963;SDS011;11648;49.306;6.934;2022-07-26T05:23:00;4.73;;;1.10;;
22963;SDS011;11648;49.306;6.934;2022-07-26T05:25:27;2.67;;;0.70;;
22963;SDS011;11648;49.306;6.934;2022-07-26T05:27:53;3.27;;;1.10;;
22963;SDS011;11648;49.306;6.934;2022-07-26T05:30:20;2.30;;;0.90;;
22963;SDS011;11648;49.306;6.934;2022-07-26T05:32:47;4.00;;;0.83;;
22963;SDS011;11648;49.306;6.934;2022-07-26T05:35:14;5.80;;;1.37;;
22963;SDS011;11648;49.306;6.934;2022-07-26T05:37:40;6.47;;;0.93;;
22963;SDS011;11648;49.306;6.934;2022-07-26T05:40:08;4.60;;;0.87;;
22963;SDS011;11648;49.306;6.934;2022-07-26T05:42:36;4.23;;;1.17;;
22963;SDS011;11648;49.306;6.934;2022-07-26T05:45:03;3.83;;;1.10;;
22963;SDS011;11648;49.306;6.934;2022-07-26T05:47:31;3.60;;;1.10;;
22963;SDS011;11648;49.306;6.934;2022-07-26T05:49:57;2.67;;;0.90;;
22963;SDS011;11648;49.306;6.934;2022-07-26T05:52:24;3.73;;;1.00;;
22963;SDS011;11648;49.306;6.934;2022-07-26T05:54:51;3.67;;;1.00;;
22963;SDS011;11648;49.306;6.934;2022-07-26T05:57:17;4.20;;;1.00;;
22963;SDS011;11648;49.306;6.934;2022-07-26T05:59:44;3.07;;;0.93;;
22963;SDS011;11648;49.306;6.934;2022-07-26T06:02:10;3.60;;;0.73;;
22963;SDS011;11648;49.306;6.934;2022-07-26T06:04:37;3.37;;;1.00;;
22963;SDS011;11648;49.306;6.934;2022-07-26T06:07:04;3.27;;;0.97;;
22963;SDS011;11648;49.306;6.934;2022-07-26T06:09:31;5.47;;;1.00;;
22963;SDS011;11648;49.306;6.934;2022-07-26T06:11:57;2.73;;;0.90;;
22963;SDS011;11648;49.306;6.934;2022-07-26T06:14:24;5.83;;;1.23;;
22963;SDS011;11648;49.306;6.934;2022-07-26T06:16:51;4.87;;;1.23;;
22963;SDS011;11648;49.306;6.934;2022-07-26T06:19:18;1.87;;;0.80;;
22963;SDS011;11648;49.306;6.934;2022-07-26T06:21:44;4.57;;;1.30;;
22963;SDS011;11648;49.306;6.934;2022-07-26T06:24:11;4.47;;;1.03;;
22963;SDS011;11648;49.306;6.934;2022-07-26T06:26:38;2.43;;;0.90;;
22963;SDS011;11648;49.306;6.934;2022-07-26T06:29:05;3.03;;;1.00;;
22963;SDS011;11648;49.306;6.934;2022-07-26T06:31:32;7.00;;;1.00;;
22963;SDS011;11648;49.306;6.934;2022-07-26T06:33:59;3.43;;;1.10;;
22963;SDS011;11648;49.306;6.934;2022-07-26T06:36:25;3.40;;;1.40;;
22963;SDS011;11648;49.306;6.934;2022-07-26T06:38:56;5.80;;;1.50;;
22963;SDS011;11648;49.306;6.934;2022-07-26T06:41:23;4.83;;;1.40;;
22963;SDS011;11648;49.306;6.934;2022-07-26T06:43:50;4.63;;;1.30;;
22963;SDS011;11648;49.306;6.934;2022-07-26T06:46:16;3.03;;;1.03;;
22963;SDS011;11648;49.306;6.934;2022-07-26T06:48:45;3.07;;;1.20;;
22963;SDS011;11648;49.306;6.934;2022-07-26T06:51:18;6.23;;;1.37;;
22963;SDS011;11648;49.306;6.934;2022-07-26T06:53:45;5.53;;;1.40;;
22963;SDS011;11648;49.306;6.934;2022-07-26T06:56:11;4.30;;;0.93;;
22963;SDS011;11648;49.306;6.934;2022-07-26T06:58:40;4.53;;;1.80;;
22963;SDS011;11648;49.306;6.934;2022-07-26T07:01:07;3.30;;;1.10;;
22963;SDS011;11648;49.306;6.934;2022-07-26T07:03:34;3.60;;;1.17;;
22963;SDS011;11648;49.306;6.934;2022-07-26T07:06:01;4.20;;;1.27;;
22963;SDS011;11648;49.306;6.934;2022-07-26T07:08:28;2.70;;;1.10;;
22963;SDS011;11648;49.306;6.934;2022-07-26T07:10:55;2.67;;;1.00;;
22963;SDS011;11648;49.306;6.934;2022-07-26T07:13:21;4.90;;;1.10;;
22963;SDS011;11648;49.306;6.934;2022-07-26T07:15:48;4.50;;;1.40;;
22963;SDS011;11648;49.306;6.934;2022-07-26T07:18:15;3.70;;;1.17;;
22963;SDS011;11648;49.306;6.934;2022-07-26T07:20:41;4.50;;;1.20;;
22963;SDS011;11648;49.306;6.934;2022-07-26T07:23:08;4.23;;;1.10;;
22963;SDS011;11648;49.306;6.934;2022-07-26T07:25:34;5.60;;;1.00;;
22963;SDS011;11648;49.306;6.934;2022-07-26T07:28:01;5.47;;;1.30;;
22963;SDS011;11648;49.306;6.934;2022-07-26T07:30:28;4.07;;;0.90;;
22963;SDS011;11648;49.306;6.934;2022-07-26T07:32:55;5.05;;;1.30;;
22963;SDS011;11648;49.306;6.934;2022-07-26T07:35:22;4.28;;;1.02;;
22963;SDS011;11648;49.306;6.934;2022-07-26T07:37:48;3.83;;;1.27;;
22963;SDS011;11648;49.306;6.934;2022-07-26T07:40:19;3.20;;;1.10;;
22963;SDS011;11648;49.306;6.934;2022-07-26T07:42:46;2.90;;;1.10;;
22963;SDS011;11648;49.306;6.934;2022-07-26T07:45:13;5.93;;;1.05;;
22963;SDS011;11648;49.306;6.934;2022-07-26T07:47:40;3.27;;;0.90;;
22963;SDS011;11648;49.306;6.934;2022-07-26T07:50:07;6.37;;;1.30;;
22963;SDS011;11648;49.306;6.934;2022-07-26T07:52:34;4.90;;;1.40;;
22963;SDS011;11648;49.306;6.934;2022-07-26T07:55:01;3.87;;;1.10;;
22963;SDS011;11648;49.306;6.934;2022-07-26T07:57:48;4.97;;;1.20;;
22963;SDS011;11648;49.306;6.934;2022-07-26T08:00:15;4.27;;;1.13;;
22963;SDS011;11648;49.306;6.934;2022-07-26T08:02:44;4.20;;;1.23;;
22963;SDS011;11648;49.306;6.934;2022-07-26T08:05:12;7.60;;;1.20;;
22963;SDS011;11648;49.306;6.934;2022-07-26T08:07:41;5.77;;;1.20;;
22963;SDS011;11648;49.306;6.934;2022-07-26T08:10:08;3.20;;;1.20;;
22963;SDS011;11648;49.306;6.934;2022-07-26T08:12:35;3.30;;;0.90;;
22963;SDS011;11648;49.306;6.934;2022-07-26T08:15:02;4.15;;;1.20;;
22963;SDS011;11648;49.306;6.934;2022-07-26T08:17:33;4.72;;;1.50;;
22963;SDS011;11648;49.306;6.934;2022-07-26T08:20:07;4.85;;;1.10;;
22963;SDS011;11648;49.306;6.934;2022-07-26T08:22:40;3.65;;;1.15;;
22963;SDS011;11648;49.306;6.934;2022-07-26T08:25:07;4.07;;;1.00;;
22963;SDS011;11648;49.306;6.934;2022-07-26T08:27:34;6.93;;;1.50;;
22963;SDS011;11648;49.306;6.934;2022-07-26T08:30:06;3.40;;;0.85;;
22963;SDS011;11648;49.306;6.934;2022-07-26T08:32:34;4.55;;;1.17;;
22963;SDS011;11648;49.306;6.934;2022-07-26T08:35:00;3.65;;;0.90;;
22963;SDS011;11648;49.306;6.934;2022-07-26T08:37:45;5.72;;;1.45;;
22963;SDS011;11648;49.306;6.934;2022-07-26T08:40:12;5.00;;;1.20;;
22963;SDS011;11648;49.306;6.934;2022-07-26T08:42:39;5.43;;;1.45;;
22963;SDS011;11648;49.306;6.934;2022-07-26T08:45:06;4.40;;;1.10;;
22963;SDS011;11648;49.306;6.934;2022-07-26T08:47:33;4.53;;;1.13;;
22963;SDS011;11648;49.306;6.934;2022-07-26T08:50:05;7.15;;;1.40;;
22963;SDS011;11648;49.306;6.934;2022-07-26T08:52:32;3.42;;;0.90;;
22963;SDS011;11648;49.306;6.934;2022-07-26T08:55:00;3.25;;;1.27;;
22963;SDS011;11648;49.306;6.934;2022-07-26T08:57:26;4.03;;;1.10;;
22963;SDS011;11648;49.306;6.934;2022-07-26T09:02:47;3.95;;;0.82;;
22963;SDS011;11648;49.306;6.934;2022-07-26T09:05:14;4.18;;;0.90;;
22963;SDS011;11648;49.306;6.934;2022-07-26T09:07:43;5.70;;;1.10;;
22963;SDS011;11648;49.306;6.934;2022-07-26T09:10:14;3.42;;;1.10;;
22963;SDS011;11648;49.306;6.934;2022-07-26T09:12:42;9.38;;;1.38;;
22963;SDS011;11648;49.306;6.934;2022-07-26T09:15:25;5.72;;;1.17;;
22963;SDS011;11648;49.306;6.934;2022-07-26T09:17:54;5.35;;;1.13;;
22963;SDS011;11648;49.306;6.934;2022-07-26T09:20:24;3.83;;;0.98;;
22963;SDS011;11648;49.306;6.934;2022-07-26T09:23:02;4.38;;;0.88;;
22963;SDS011;11648;49.306;6.934;2022-07-26T09:25:30;5.78;;;1.10;;
22963;SDS011;11648;49.306;6.934;2022-07-26T09:28:02;3.22;;;1.00;;
22963;SDS011;11648;49.306;6.934;2022-07-26T09:30:30;3.78;;;1.00;;
22963;SDS011;11648;49.306;6.934;2022-07-26T09:35:29;3.35;;;1.00;;
22963;SDS011;11648;49.306;6.934;2022-07-26T09:38:18;3.15;;;1.10;;
22963;SDS011;11648;49.306;6.934;2022-07-26T09:40:45;7.18;;;1.20;;
22963;SDS011;11648;49.306;6.934;2022-07-26T09:43:16;3.63;;;1.20;;
22963;SDS011;11648;49.306;6.934;2022-07-26T09:46:01;5.13;;;1.15;;
22963;SDS011;11648;49.306;6.934;2022-07-26T09:48:32;3.08;;;0.80;;
22963;SDS011;11648;49.306;6.934;2022-07-26T09:51:39;4.13;;;0.90;;
22963;SDS011;11648;49.306;6.934;2022-07-26T09:54:11;2.50;;;0.82;;
22963;SDS011;11648;49.306;6.934;2022-07-26T09:56:50;8.55;;;1.10;;
22963;SDS011;11648;49.306;6.934;2022-07-26T09:59:18;8.75;;;1.00;;
22963;SDS011;11648;49.306;6.934;2022-07-26T10:01:48;6.65;;;0.75;;
22963;SDS011;11648;49.306;6.934;2022-07-26T10:04:17;3.92;;;0.95;;
22963;SDS011;11648;49.306;6.934;2022-07-26T10:06:44;5.57;;;1.25;;
22963;SDS011;11648;49.306;6.934;2022-07-26T10:09:12;3.08;;;1.00;;
22963;SDS011;11648;49.306;6.934;2022-07-26T10:11:57;2.97;;;0.80;;
22963;SDS011;11648;49.306;6.934;2022-07-26T10:16:58;9.48;;;1.20;;
22963;SDS011;11648;49.306;6.934;2022-07-26T10:19:39;6.60;;;1.23;;
22963;SDS011;11648;49.306;6.934;2022-07-26T10:22:23;2.47;;;0.82;;
22963;SDS011;11648;49.306;6.934;2022-07-26T10:24:56;3.78;;;0.80;;
22963;SDS011;11648;49.306;6.934;2022-07-26T10:35:28;1.80;;;0.80;;
22963;SDS011;11648;49.306;6.934;2022-07-26T10:38:13;5.72;;;1.20;;
22963;SDS011;11648;49.306;6.934;2022-07-26T10:40:54;7.80;;;0.98;;
22963;SDS011;11648;49.306;6.934;2022-07-26T10:43:21;3.28;;;0.70;;
22963;SDS011;11648;49.306;6.934;2022-07-26T10:51:33;2.90;;;0.90;;
22963;SDS011;11648;49.306;6.934;2022-07-26T10:54:02;3.25;;;1.00;;
22963;SDS011;11648;49.306;6.934;2022-07-26T10:56:30;4.57;;;0.98;;
22963;SDS011;11648;49.306;6.934;2022-07-26T10:58:59;2.40;;;0.73;;
22963;SDS011;11648;49.306;6.934;2022-07-26T11:01:39;1.63;;;0.68;;
22963;SDS011;11648;49.306;6.934;2022-07-26T11:04:17;3.60;;;1.02;;
22963;SDS011;11648;49.306;6.934;2022-07-26T11:06:45;2.88;;;0.80;;
22963;SDS011;11648;49.306;6.934;2022-07-26T11:09:12;2.22;;;0.73;;
22963;SDS011;11648;49.306;6.934;2022-07-26T11:11:38;9.60;;;1.23;;
22963;SDS011;11648;49.306;6.934;2022-07-26T11:14:12;5.88;;;1.15;;
22963;SDS011;11648;49.306;6.934;2022-07-26T11:19:11;5.97;;;1.02;;
22963;SDS011;11648;49.306;6.934;2022-07-26T11:21:45;5.20;;;1.10;;
22963;SDS011;11648;49.306;6.934;2022-07-26T11:24:19;2.58;;;0.98;;
22963;SDS011;11648;49.306;6.934;2022-07-26T11:26:47;2.70;;;1.00;;
22963;SDS011;11648;49.306;6.934;2022-07-26T11:29:13;3.70;;;1.20;;
22963;SDS011;11648;49.306;6.934;2022-07-26T11:31:44;3.10;;;0.88;;
22963;SDS011;11648;49.306;6.934;2022-07-26T11:34:20;2.58;;;0.90;;
22963;SDS011;11648;49.306;6.934;2022-07-26T11:36:49;1.98;;;0.70;;
22963;SDS011;11648;49.306;6.934;2022-07-26T11:42:13;2.53;;;1.10;;
22963;SDS011;11648;49.306;6.934;2022-07-26T11:44:43;2.70;;;0.80;;
22963;SDS011;11648;49.306;6.934;2022-07-26T11:47:12;1.83;;;0.90;;
22963;SDS011;11648;49.306;6.934;2022-07-26T11:49:40;2.20;;;0.98;;
22963;SDS011;11648;49.306;6.934;2022-07-26T11:52:29;3.03;;;0.90;;
22963;SDS011;11648;49.306;6.934;2022-07-26T11:54:57;4.53;;;1.02;;
22963;SDS011;11648;49.306;6.934;2022-07-26T11:57:30;6.82;;;0.80;;
22963;SDS011;11648;49.306;6.934;2022-07-26T11:59:58;3.80;;;1.10;;
22963;SDS011;11648;49.306;6.934;2022-07-26T12:02:36;2.42;;;0.77;;
22963;SDS011;11648;49.306;6.934;2022-07-26T12:05:16;4.53;;;1.00;;
22963;SDS011;11648;49.306;6.934;2022-07-26T12:08:19;4.47;;;0.77;;
22963;SDS011;11648;49.306;6.934;2022-07-26T12:10:38;3.22;;;0.98;;
22963;SDS011;11648;49.306;6.934;2022-07-26T12:13:08;2.00;;;0.90;;
22963;SDS011;11648;49.306;6.934;2022-07-26T12:15:43;3.17;;;0.90;;
22963;SDS011;11648;49.306;6.934;2022-07-26T12:18:19;2.67;;;0.82;;
22963;SDS011;11648;49.306;6.934;2022-07-26T12:21:06;3.28;;;0.80;;
22963;SDS011;11648;49.306;6.934;2022-07-26T12:23:41;2.13;;;0.90;;
22963;SDS011;11648;49.306;6.934;2022-07-26T12:26:19;2.60;;;1.00;;
22963;SDS011;11648;49.306;6.934;2022-07-26T12:28:46;2.75;;;1.10;;
22963;SDS011;11648;49.306;6.934;2022-07-26T12:31:28;2.78;;;1.23;;
22963;SDS011;11648;49.306;6.934;2022-07-26T12:33:57;2.70;;;1.10;;
22963;SDS011;11648;49.306;6.934;2022-07-26T12:36:24;2.38;;;0.90;;
22963;SDS011;11648;49.306;6.934;2022-07-26T12:38:57;3.13;;;1.00;;
22963;SDS011;11648;49.306;6.934;2022-07-26T12:44:00;6.78;;;1.70;;
22963;SDS011;11648;49.306;6.934;2022-07-26T12:46:30;2.38;;;1.00;;
22963;SDS011;11648;49.306;6.934;2022-07-26T12:48:57;3.77;;;1.10;;
22963;SDS011;11648;49.306;6.934;2022-07-26T12:51:26;4.63;;;1.30;;
22963;SDS011;11648;49.306;6.934;2022-07-26T12:53:52;3.47;;;1.10;;
22963;SDS011;11648;49.306;6.934;2022-07-26T12:56:19;4.53;;;1.20;;
22963;SDS011;11648;49.306;6.934;2022-07-26T12:58:46;3.43;;;1.10;;
22963;SDS011;11648;49.306;6.934;2022-07-26T13:01:12;2.30;;;1.10;;
22963;SDS011;11648;49.306;6.934;2022-07-26T13:03:39;3.50;;;1.00;;
22963;SDS011;11648;49.306;6.934;2022-07-26T13:06:06;3.63;;;1.03;;
22963;SDS011;11648;49.306;6.934;2022-07-26T13:08:33;5.23;;;1.10;;
22963;SDS011;11648;49.306;6.934;2022-07-26T13:10:59;3.20;;;1.23;;
22963;SDS011;11648;49.306;6.934;2022-07-26T13:13:26;4.50;;;1.37;;
22963;SDS011;11648;49.306;6.934;2022-07-26T13:15:53;2.67;;;1.37;;
22963;SDS011;11648;49.306;6.934;2022-07-26T13:18:19;2.77;;;1.20;;
22963;SDS011;11648;49.306;6.934;2022-07-26T13:20:46;5.73;;;1.33;;
22963;SDS011;11648;49.306;6.934;2022-07-26T13:23:12;3.42;;;1.40;;
22963;SDS011;11648;49.306;6.934;2022-07-26T13:25:47;2.53;;;1.25;;
22963;SDS011;11648;49.306;6.934;2022-07-26T13:28:15;3.38;;;1.40;;
22963;SDS011;11648;49.306;6.934;2022-07-26T13:30:42;4.03;;;1.30;;
22963;SDS011;11648;49.306;6.934;2022-07-26T13:33:10;5.03;;;1.30;;
22963;SDS011;11648;49.306;6.934;2022-07-26T13:35:37;4.63;;;1.40;;
22963;SDS011;11648;49.306;6.934;2022-07-26T13:38:06;3.50;;;1.30;;
22963;SDS011;11648;49.306;6.934;2022-07-26T13:40:34;6.38;;;1.65;;
22963;SDS011;11648;49.306;6.934;2022-07-26T13:43:01;3.45;;;1.35;;
22963;SDS011;11648;49.306;6.934;2022-07-26T13:45:28;6.25;;;1.60;;
22963;SDS011;11648;49.306;6.934;2022-07-26T13:47:58;2.58;;;1.30;;
22963;SDS011;11648;49.306;6.934;2022-07-26T13:50:25;2.35;;;1.00;;
22963;SDS011;11648;49.306;6.934;2022-07-26T13:52:53;3.30;;;1.02;;
22963;SDS011;11648;49.306;6.934;2022-07-26T13:55:21;4.20;;;0.93;;
22963;SDS011;11648;49.306;6.934;2022-07-26T13:57:48;3.50;;;1.00;;
22963;SDS011;11648;49.306;6.934;2022-07-26T14:00:27;2.95;;;0.90;;
22963;SDS011;11648;49.306;6.934;2022-07-26T14:02:58;2.38;;;1.00;;
22963;SDS011;11648;49.306;6.934;2022-07-26T14:05:25;3.60;;;1.10;;
22963;SDS011;11648;49.306;6.934;2022-07-26T14:07:53;6.10;;;1.25;;
22963;SDS011;11648;49.306;6.934;2022-07-26T14:10:20;6.95;;;1.17;;
22963;SDS011;11648;49.306;6.934;2022-07-26T14:12:48;5.00;;;1.13;;
22963;SDS011;11648;49.306;6.934;2022-07-26T14:15:15;3.25;;;1.17;;
22963;SDS011;11648;49.306;6.934;2022-07-26T14:17:48;3.83;;;1.10;;
22963;SDS011;11648;49.306;6.934;2022-07-26T14:20:15;2.25;;;1.00;;
22963;SDS011;11648;49.306;6.934;2022-07-26T14:22:45;2.17;;;0.93;;
22963;SDS011;11648;49.306;6.934;2022-07-26T14:25:12;4.10;;;1.10;;
22963;SDS011;11648;49.306;6.934;2022-07-26T14:27:39;3.22;;;1.08;;
22963;SDS011;11648;49.306;6.934;2022-07-26T14:30:06;3.63;;;0.93;;
22963;SDS011;11648;49.306;6.934;2022-07-26T14:32:33;1.77;;;1.00;;
22963;SDS011;11648;49.306;6.934;2022-07-26T14:34:59;3.78;;;1.05;;
22963;SDS011;11648;49.306;6.934;2022-07-26T14:37:26;2.38;;;0.80;;
22963;SDS011;11648;49.306;6.934;2022-07-26T14:40:14;4.25;;;1.10;;
22963;SDS011;11648;49.306;6.934;2022-07-26T14:42:42;2.35;;;1.00;;
22963;SDS011;11648;49.306;6.934;2022-07-26T14:45:09;4.68;;;1.00;;
22963;SDS011;11648;49.306;6.934;2022-07-26T14:47:37;2.65;;;1.02;;
22963;SDS011;11648;49.306;6.934;2022-07-26T14:50:04;4.32;;;1.10;;
22963;SDS011;11648;49.306;6.934;2022-07-26T14:52:37;3.85;;;1.00;;
22963;SDS011;11648;49.306;6.934;2022-07-26T14:55:05;2.05;;;1.00;;
22963;SDS011;11648;49.306;6.934;2022-07-26T14:57:32;2.38;;;0.80;;
22963;SDS011;11648;49.306;6.934;2022-07-26T15:00:04;2.17;;;1.00;;
22963;SDS011;11648;49.306;6.934;2022-07-26T15:02:33;4.97;;;1.15;;
22963;SDS011;11648;49.306;6.934;2022-07-26T15:04:59;7.80;;;1.50;;
22963;SDS011;11648;49.306;6.934;2022-07-26T15:07:26;5.25;;;1.00;;
22963;SDS011;11648;49.306;6.934;2022-07-26T15:09:53;3.55;;;1.00;;
22963;SDS011;11648;49.306;6.934;2022-07-26T15:12:20;4.20;;;1.10;;
22963;SDS011;11648;49.306;6.934;2022-07-26T15:14:46;2.75;;;1.10;;
22963;SDS011;11648;49.306;6.934;2022-07-26T15:17:13;4.75;;;1.00;;
22963;SDS011;11648;49.306;6.934;2022-07-26T15:19:40;2.95;;;1.27;;
22963;SDS011;11648;49.306;6.934;2022-07-26T15:22:06;3.28;;;1.15;;
22963;SDS011;11648;49.306;6.934;2022-07-26T15:24:33;6.22;;;1.52;;
22963;SDS011;11648;49.306;6.934;2022-07-26T15:27:05;3.90;;;1.30;;